Sentell, Louisiana
Current Conditions -  °F | °C
As of 7:53 PM on Wednesday 22 Oct 2014 (Local Time) from KDTN Reporting Station
Clear Clear  
Wind Chill: 63°   Ceiling: Unl
Heat Index: 63°   Visibility: 10mi
Dew Point: 53°   Wind: 3mph
Humidity: 70%   Direction: 30°NNE
Pressure: 30.12"   Gusts: NA
Location:  32.5955°N, 93.8642°W
Report Text: KDTN 230053Z 03003KT 10SM CLR 17/12 A3012 RMK AO2 SLP198 T01720117
Loading
Personal Weather Stations






























Interactive Weather Map
Tropical Storm Tracking
New forecast layout! Learn more

10-Day Weather Forecast

Advertisements
Track Severe Weather on mobile